createdAt,value
2019-06-08T00:00:37.673Z,1003.48
2019-06-08T00:01:37.669Z,1003.47
2019-06-08T00:02:37.647Z,1003.43
2019-06-08T00:03:37.649Z,1003.49
2019-06-08T00:04:37.623Z,1003.42
2019-06-08T00:05:37.659Z,1003.45
2019-06-08T00:06:37.617Z,1003.42
2019-06-08T00:07:37.601Z,1003.34
2019-06-08T00:08:37.583Z,1003.35
2019-06-08T00:09:37.591Z,1003.29
2019-06-08T00:10:37.570Z,1003.39
2019-06-08T00:11:37.543Z,1003.33
2019-06-08T00:12:37.587Z,1003.32
2019-06-08T00:13:37.530Z,1003.42
2019-06-08T00:14:37.530Z,1003.48
2019-06-08T00:15:37.519Z,1003.40
2019-06-08T00:16:37.520Z,1003.50
2019-06-08T00:17:39.078Z,1003.45
2019-06-08T00:18:37.474Z,1003.51
2019-06-08T00:19:37.461Z,1003.51
2019-06-08T00:20:37.480Z,1003.52
2019-06-08T00:21:37.484Z,1003.60
2019-06-08T00:22:37.444Z,1003.59
2019-06-08T00:23:37.425Z,1003.57
2019-06-08T00:24:37.408Z,1003.64
2019-06-08T00:25:37.395Z,1003.67
2019-06-08T00:26:37.408Z,1003.60
2019-06-08T00:27:37.368Z,1003.68
2019-06-08T00:28:37.373Z,1003.66
2019-06-08T00:29:37.360Z,1003.68
2019-06-08T00:30:37.344Z,1003.70
2019-06-08T00:31:37.352Z,1003.66
2019-06-08T00:32:37.341Z,1003.65
2019-06-08T00:33:37.313Z,1003.67
2019-06-08T00:34:37.355Z,1003.65
2019-06-08T00:35:37.301Z,1003.62
2019-06-08T00:36:37.287Z,1003.68
2019-06-08T00:37:37.259Z,1003.62
2019-06-08T00:38:37.253Z,1003.64
2019-06-08T00:39:37.250Z,1003.72
2019-06-08T00:40:37.241Z,1003.74
2019-06-08T00:41:37.225Z,1003.69
2019-06-08T00:42:37.217Z,1003.70
2019-06-08T00:43:37.226Z,1003.71
2019-06-08T00:44:37.215Z,1003.72
2019-06-08T00:45:37.181Z,1003.76
2019-06-08T00:46:37.188Z,1003.75
2019-06-08T00:47:47.464Z,1003.79
2019-06-08T00:48:38.159Z,1003.76
2019-06-08T00:49:37.158Z,1003.72
2019-06-08T00:50:37.144Z,1003.73
2019-06-08T00:51:37.138Z,1003.76
2019-06-08T00:52:37.122Z,1003.76
2019-06-08T00:53:37.091Z,1003.73
2019-06-08T00:54:37.090Z,1003.72
2019-06-08T00:55:37.062Z,1003.80
2019-06-08T00:56:37.117Z,1003.78
2019-06-08T00:57:37.059Z,1003.80
2019-06-08T00:58:37.058Z,1003.79
2019-06-08T00:59:37.038Z,1003.86
2019-06-08T01:00:37.047Z,1003.82
2019-06-08T01:01:37.038Z,1003.74
2019-06-08T01:02:37.005Z,1003.78
2019-06-08T01:03:36.981Z,1003.79
2019-06-08T01:04:36.969Z,1003.78
2019-06-08T01:05:36.979Z,1003.80
2019-06-08T01:06:36.970Z,1003.80
2019-06-08T01:07:36.935Z,1003.88
2019-06-08T01:08:36.922Z,1003.82
2019-06-08T01:09:36.906Z,1003.82
2019-06-08T01:10:36.947Z,1003.77
2019-06-08T01:11:36.901Z,1003.84
2019-06-08T01:12:36.878Z,1003.80
2019-06-08T01:13:36.863Z,1003.75
2019-06-08T01:14:36.852Z,1003.78
2019-06-08T01:15:36.878Z,1003.81
2019-06-08T01:16:36.866Z,1003.80
2019-06-08T01:17:36.869Z,1003.79
2019-06-08T01:18:36.816Z,1003.76
2019-06-08T01:19:36.812Z,1003.80
2019-06-08T01:20:36.791Z,1003.85
2019-06-08T01:21:36.814Z,1003.79
2019-06-08T01:22:36.765Z,1003.82
2019-06-08T01:23:36.768Z,1003.83
2019-06-08T01:24:36.742Z,1003.79
2019-06-08T01:25:36.744Z,1003.83
2019-06-08T01:26:36.730Z,1003.85
2019-06-08T01:27:36.719Z,1003.86
2019-06-08T01:28:36.824Z,1003.77
2019-06-08T01:29:36.714Z,1003.85
2019-06-08T01:30:36.685Z,1003.87
2019-06-08T01:31:36.697Z,1003.84
2019-06-08T01:32:36.670Z,1003.88
2019-06-08T01:33:36.652Z,1003.81
2019-06-08T01:34:36.630Z,1003.87
2019-06-08T01:35:36.624Z,1003.87
2019-06-08T01:36:36.616Z,1003.75
2019-06-08T01:37:36.594Z,1003.83
2019-06-08T01:38:36.595Z,1003.87
2019-06-08T01:39:36.590Z,1003.82
2019-06-08T01:40:36.575Z,1003.83
2019-06-08T01:41:36.608Z,1003.75
2019-06-08T01:42:36.547Z,1003.83
2019-06-08T01:43:36.531Z,1003.92
2019-06-08T01:44:36.532Z,1003.97
2019-06-08T01:45:36.531Z,1003.86
2019-06-08T01:46:36.507Z,1003.88
2019-06-08T01:47:36.487Z,1003.83
2019-06-08T01:48:36.475Z,1003.96
2019-06-08T01:49:36.466Z,1003.85
2019-06-08T01:50:36.451Z,1003.96
2019-06-08T01:51:36.455Z,1003.84
2019-06-08T01:52:36.450Z,1003.82
2019-06-08T01:53:36.427Z,1003.84
2019-06-08T01:54:36.409Z,1003.81
2019-06-08T01:55:36.409Z,1003.81
2019-06-08T01:56:36.382Z,1003.79
2019-06-08T01:57:36.402Z,1003.77
2019-06-08T01:58:36.364Z,1003.82
2019-06-08T01:59:36.358Z,1003.85
2019-06-08T02:00:41.205Z,1003.83
2019-06-08T02:01:37.337Z,1003.73
2019-06-08T02:02:36.338Z,1003.80
2019-06-08T02:03:36.314Z,1003.77
2019-06-08T02:04:36.313Z,1003.81
2019-06-08T02:05:36.305Z,1003.72
2019-06-08T02:06:36.291Z,1003.86
2019-06-08T02:07:36.266Z,1003.74
2019-06-08T02:08:36.271Z,1003.74
2019-06-08T02:09:36.241Z,1003.77
2019-06-08T02:10:36.241Z,1003.76
2019-06-08T02:11:36.225Z,1003.79
2019-06-08T02:12:36.223Z,1003.80
2019-06-08T02:13:36.255Z,1003.81
2019-06-08T02:14:36.248Z,1003.81
2019-06-08T02:15:36.188Z,1003.81
2019-06-08T02:16:36.168Z,1003.79
2019-06-08T02:17:36.168Z,1003.78
2019-06-08T02:18:47.063Z,1003.79
2019-06-08T02:19:37.149Z,1003.85
2019-06-08T02:20:36.142Z,1003.79
2019-06-08T02:21:36.112Z,1003.78
2019-06-08T02:22:36.098Z,1003.84
2019-06-08T02:23:36.097Z,1003.90
2019-06-08T02:24:36.076Z,1003.76
2019-06-08T02:25:36.066Z,1003.78
2019-06-08T02:26:36.389Z,1003.89
2019-06-08T02:27:36.045Z,1003.82
2019-06-08T02:28:36.040Z,1003.87
2019-06-08T02:29:36.035Z,1003.81
2019-06-08T02:30:38.593Z,1003.89
2019-06-08T02:31:37.731Z,1003.88
2019-06-08T02:32:37.437Z,1003.85
2019-06-08T02:33:37.362Z,1003.94
2019-06-08T02:34:38.078Z,1003.86
2019-06-08T02:35:37.763Z,1003.87
2019-06-08T02:36:37.906Z,1003.88
2019-06-08T02:37:37.720Z,1003.90
2019-06-08T02:38:36.160Z,1003.95
2019-06-08T02:39:37.841Z,1003.88
2019-06-08T02:40:36.875Z,1003.91
2019-06-08T02:41:37.603Z,1003.95
2019-06-08T02:42:37.213Z,1003.92
2019-06-08T02:43:37.708Z,1003.90
2019-06-08T02:44:36.389Z,1003.95
2019-06-08T02:45:36.950Z,1003.97
2019-06-08T02:46:37.576Z,1004.04
2019-06-08T02:47:36.700Z,1004.00
2019-06-08T02:48:56.260Z,1004.01
2019-06-08T02:49:37.593Z,1004.03
2019-06-08T02:50:37.341Z,1004.03
2019-06-08T02:51:36.538Z,1003.97
2019-06-08T02:52:36.320Z,1004.05
2019-06-08T02:53:37.791Z,1004.00
2019-06-08T02:54:37.889Z,1004.06
2019-06-08T02:55:37.221Z,1004.09
2019-06-08T02:56:36.765Z,1004.11
2019-06-08T02:57:37.487Z,1004.14
2019-06-08T02:58:37.967Z,1004.05
2019-06-08T02:59:37.764Z,1004.11
2019-06-08T03:00:37.383Z,1004.07
2019-06-08T03:01:36.217Z,1004.06
2019-06-08T03:02:36.866Z,1004.08
2019-06-08T03:03:35.868Z,1004.08
2019-06-08T03:04:36.494Z,1004.09
2019-06-08T03:05:35.809Z,1004.21
2019-06-08T03:06:36.822Z,1004.18
2019-06-08T03:07:36.876Z,1004.22
2019-06-08T03:08:36.240Z,1004.14
2019-06-08T03:09:36.581Z,1004.20
2019-06-08T03:10:37.112Z,1004.21
2019-06-08T03:11:36.879Z,1004.17
2019-06-08T03:12:37.439Z,1004.23
2019-06-08T03:13:36.133Z,1004.19
2019-06-08T03:14:37.456Z,1004.27
2019-06-08T03:15:37.080Z,1004.25
2019-06-08T03:16:36.401Z,1004.32
2019-06-08T03:17:35.690Z,1004.25
2019-06-08T03:18:35.865Z,1004.36
2019-06-08T03:19:35.730Z,1004.30
2019-06-08T03:20:35.798Z,1004.33
2019-06-08T03:21:36.179Z,1004.31
2019-06-08T03:22:37.170Z,1004.37
2019-06-08T03:23:36.239Z,1004.34
2019-06-08T03:24:36.596Z,1004.41
2019-06-08T03:25:48.994Z,1004.38
2019-06-08T03:26:37.140Z,1004.34
2019-06-08T03:27:37.304Z,1004.40
2019-06-08T03:28:37.148Z,1004.28
2019-06-08T03:29:37.092Z,1004.33
2019-06-08T03:30:43.772Z,1004.35
2019-06-08T03:31:43.924Z,1004.27
2019-06-08T03:32:42.077Z,1004.28
2019-06-08T03:33:45.402Z,1004.45
2019-06-08T03:34:45.812Z,1004.39
2019-06-08T03:35:46.637Z,1004.37
2019-06-08T03:36:43.898Z,1004.44
2019-06-08T03:37:37.778Z,1004.44
2019-06-08T03:38:35.830Z,1004.39
2019-06-08T03:39:36.925Z,1004.41
2019-06-08T03:40:35.881Z,1004.40
2019-06-08T03:41:36.254Z,1004.59
2019-06-08T03:42:35.213Z,1004.43
2019-06-08T03:43:35.408Z,1004.54
2019-06-08T03:44:36.167Z,1004.49
2019-06-08T03:45:36.396Z,1004.47
2019-06-08T03:46:36.372Z,1004.51
2019-06-08T03:47:36.895Z,1004.48
2019-06-08T03:48:36.968Z,1004.51
2019-06-08T03:49:42.996Z,1004.49
2019-06-08T03:50:37.540Z,1004.53
2019-06-08T03:51:37.794Z,1004.59
2019-06-08T03:52:37.864Z,1004.52
2019-06-08T03:53:35.707Z,1004.65
2019-06-08T03:54:36.070Z,1004.54
2019-06-08T03:55:35.438Z,1004.60
2019-06-08T03:56:35.815Z,1004.68
2019-06-08T03:57:35.778Z,1004.67
2019-06-08T03:58:36.582Z,1004.75
2019-06-08T03:59:36.085Z,1004.73
2019-06-08T04:00:36.371Z,1004.75
2019-06-08T04:01:35.022Z,1004.70
2019-06-08T04:02:35.020Z,1004.71
2019-06-08T04:03:34.994Z,1004.79
2019-06-08T04:04:34.982Z,1004.74
2019-06-08T04:05:34.959Z,1004.75
2019-06-08T04:06:34.991Z,1004.84
2019-06-08T04:07:34.939Z,1004.74
2019-06-08T04:08:34.923Z,1004.74
2019-06-08T04:09:34.930Z,1004.76
2019-06-08T04:10:34.927Z,1004.82
2019-06-08T04:11:34.901Z,1004.78
2019-06-08T04:12:34.897Z,1004.85
2019-06-08T04:13:34.931Z,1004.83
2019-06-08T04:14:34.876Z,1004.89
2019-06-08T04:15:34.875Z,1004.79
2019-06-08T04:16:34.869Z,1004.85
2019-06-08T04:17:34.873Z,1004.93
2019-06-08T04:18:34.818Z,1004.85
2019-06-08T04:19:34.802Z,1005.05
2019-06-08T04:20:34.799Z,1004.92
2019-06-08T04:21:34.782Z,1004.91
2019-06-08T04:22:34.963Z,1004.97
2019-06-08T04:23:34.825Z,1004.91
2019-06-08T04:24:34.854Z,1005.12
2019-06-08T04:25:34.833Z,1004.98
2019-06-08T04:26:34.927Z,1004.96
2019-06-08T04:27:34.767Z,1005.01
2019-06-08T04:28:34.757Z,1004.95
2019-06-08T04:29:34.755Z,1004.92
2019-06-08T04:30:34.687Z,1004.96
2019-06-08T04:31:34.699Z,1005.01
2019-06-08T04:32:34.737Z,1004.99
2019-06-08T04:33:34.664Z,1005.02
2019-06-08T04:34:34.660Z,1005.01
2019-06-08T04:35:34.630Z,1004.95
2019-06-08T04:36:34.617Z,1005.09
2019-06-08T04:37:34.615Z,1005.08
2019-06-08T04:38:34.646Z,1004.93
2019-06-08T04:39:34.627Z,1005.06
2019-06-08T04:40:34.577Z,1005.02
2019-06-08T04:41:34.566Z,1005.10
2019-06-08T04:42:34.571Z,1005.17
2019-06-08T04:43:34.546Z,1005.14
2019-06-08T04:44:34.546Z,1005.07
2019-06-08T04:45:34.547Z,1005.14
2019-06-08T04:46:34.514Z,1005.16
2019-06-08T04:47:34.498Z,1005.12
2019-06-08T04:48:34.545Z,1005.12
2019-06-08T04:49:34.499Z,1005.22
2019-06-08T04:50:34.471Z,1005.19
2019-06-08T04:51:34.504Z,1005.22
2019-06-08T04:52:34.447Z,1005.29
2019-06-08T04:53:34.438Z,1005.19
2019-06-08T04:54:34.439Z,1005.26
2019-06-08T04:55:34.420Z,1005.27
2019-06-08T04:56:34.396Z,1005.37
2019-06-08T04:57:34.405Z,1005.31
2019-06-08T04:58:34.419Z,1005.26
2019-06-08T04:59:34.370Z,1005.29
2019-06-08T05:00:34.392Z,1005.25
2019-06-08T05:01:34.359Z,1005.39
2019-06-08T05:02:34.330Z,1005.30
2019-06-08T05:03:34.337Z,1005.30
2019-06-08T05:04:34.370Z,1005.37
2019-06-08T05:05:34.297Z,1005.37
2019-06-08T05:06:34.287Z,1005.33
2019-06-08T05:07:34.286Z,1005.40
2019-06-08T05:08:34.265Z,1005.46
2019-06-08T05:09:34.272Z,1005.59
2019-06-08T05:10:34.266Z,1005.47
2019-06-08T05:11:36.394Z,1005.48
2019-06-08T05:12:34.218Z,1005.48
2019-06-08T05:13:34.210Z,1005.51
2019-06-08T05:14:34.198Z,1005.45
2019-06-08T05:15:34.203Z,1005.63
2019-06-08T05:16:34.271Z,1005.57
2019-06-08T05:17:34.169Z,1005.58
2019-06-08T05:18:34.153Z,1005.67
2019-06-08T05:19:34.732Z,1005.60
2019-06-08T05:20:39.059Z,1005.55
2019-06-08T05:21:35.126Z,1005.51
2019-06-08T05:22:34.132Z,1005.65
2019-06-08T05:23:34.102Z,1005.70
2019-06-08T05:24:34.098Z,1005.56
2019-06-08T05:25:34.142Z,1005.59
2019-06-08T05:26:34.061Z,1005.47
2019-06-08T05:27:34.073Z,1005.58
2019-06-08T05:28:34.049Z,1005.69
2019-06-08T05:29:34.031Z,1005.72
2019-06-08T05:30:34.019Z,1005.78
2019-06-08T05:31:34.070Z,1005.73
2019-06-08T05:32:34.020Z,1005.69
2019-06-08T05:33:33.983Z,1005.76
2019-06-08T05:34:33.996Z,1005.71
2019-06-08T05:35:33.962Z,1005.74
2019-06-08T05:36:33.955Z,1005.75
2019-06-08T05:37:34.002Z,1005.76
2019-06-08T05:38:33.969Z,1005.74
2019-06-08T05:39:33.926Z,1005.81
2019-06-08T05:40:33.904Z,1005.84
2019-06-08T05:41:33.904Z,1005.84
2019-06-08T05:42:33.892Z,1005.83
2019-06-08T05:43:33.870Z,1005.79
2019-06-08T05:44:33.940Z,1005.89
2019-06-08T05:45:33.869Z,1005.88
2019-06-08T05:46:33.849Z,1005.91
2019-06-08T05:47:33.827Z,1005.92
2019-06-08T05:48:33.818Z,1005.81
2019-06-08T05:49:33.810Z,1005.90
2019-06-08T05:50:33.881Z,1005.92
2019-06-08T05:51:33.788Z,1005.95
2019-06-08T05:52:33.776Z,1005.93
2019-06-08T05:53:33.764Z,1005.99
2019-06-08T05:54:33.757Z,1005.96
2019-06-08T05:55:33.784Z,1006.06
2019-06-08T05:56:33.748Z,1005.95
2019-06-08T05:57:33.743Z,1006.01
2019-06-08T05:58:33.711Z,1005.98
2019-06-08T05:59:33.700Z,1006.11
2019-06-08T06:00:33.690Z,1006.03
2019-06-08T06:01:33.686Z,1006.00
2019-06-08T06:02:33.766Z,1006.12
2019-06-08T06:03:33.651Z,1006.01
2019-06-08T06:04:33.640Z,1006.07
2019-06-08T06:05:33.628Z,1006.13
2019-06-08T06:06:33.627Z,1006.07
2019-06-08T06:07:33.627Z,1006.09
2019-06-08T06:08:33.593Z,1006.07
2019-06-08T06:09:33.638Z,1006.11
2019-06-08T06:10:33.570Z,1006.10
2019-06-08T06:11:33.563Z,1006.17
2019-06-08T06:12:33.563Z,1006.12
2019-06-08T06:13:33.576Z,1006.22
2019-06-08T06:14:36.814Z,1006.13
2019-06-08T06:15:33.529Z,1006.28
2019-06-08T06:16:33.548Z,1006.19
2019-06-08T06:17:33.510Z,1006.21
2019-06-08T06:18:33.491Z,1006.21
2019-06-08T06:19:33.492Z,1006.26
2019-06-08T06:20:33.467Z,1006.19
2019-06-08T06:21:33.451Z,1006.24
2019-06-08T06:22:33.441Z,1006.38
2019-06-08T06:23:33.445Z,1006.28
2019-06-08T06:24:33.497Z,1006.36
2019-06-08T06:25:33.424Z,1006.34
2019-06-08T06:26:33.404Z,1006.40
2019-06-08T06:27:33.393Z,1006.44
2019-06-08T06:28:33.376Z,1006.77
2019-06-08T06:29:33.409Z,1006.46
2019-06-08T06:30:33.428Z,1006.42
2019-06-08T06:31:33.338Z,1006.44
2019-06-08T06:32:33.333Z,1006.47
2019-06-08T06:33:33.320Z,1006.54
2019-06-08T06:34:33.304Z,1006.42
2019-06-08T06:35:33.313Z,1006.58
2019-06-08T06:36:33.282Z,1006.56
2019-06-08T06:37:33.339Z,1006.54
2019-06-08T06:38:33.274Z,1006.56
2019-06-08T06:39:33.255Z,1006.48
2019-06-08T06:40:33.244Z,1006.55
2019-06-08T06:41:33.248Z,1006.53
2019-06-08T06:42:33.214Z,1006.54
2019-06-08T06:43:33.205Z,1006.57
2019-06-08T06:44:33.263Z,1006.71
2019-06-08T06:45:33.184Z,1006.62
2019-06-08T06:46:33.213Z,1006.64
2019-06-08T06:47:33.172Z,1006.64
2019-06-08T06:48:33.147Z,1006.67
2019-06-08T06:49:33.141Z,1006.83
2019-06-08T06:50:33.183Z,1006.66
2019-06-08T06:51:34.006Z,1006.77
2019-06-08T06:52:33.125Z,1006.70
2019-06-08T06:53:33.139Z,1006.74
2019-06-08T06:54:33.098Z,1006.87
2019-06-08T06:55:33.069Z,1006.85
2019-06-08T06:56:33.108Z,1006.85
2019-06-08T06:57:36.257Z,1006.81
2019-06-08T06:58:33.034Z,1006.86
2019-06-08T06:59:33.025Z,1006.99
2019-06-08T07:00:33.018Z,1007.05
2019-06-08T07:01:33.011Z,1006.92
2019-06-08T07:02:33.065Z,1006.84
2019-06-08T07:03:33.031Z,1006.99
2019-06-08T07:04:33.004Z,1006.96
2019-06-08T07:05:32.957Z,1007.17
2019-06-08T07:06:32.961Z,1007.08
2019-06-08T07:07:33.005Z,1007.00
2019-06-08T07:08:32.939Z,1007.07
2019-06-08T07:09:32.909Z,1007.09
2019-06-08T07:10:32.942Z,1007.06
2019-06-08T07:11:32.892Z,1007.11
2019-06-08T07:12:32.884Z,1007.12
2019-06-08T07:13:32.874Z,1007.22
2019-06-08T07:14:32.888Z,1007.19
2019-06-08T07:15:41.096Z,1007.29
2019-06-08T07:16:33.834Z,1007.26
2019-06-08T07:17:32.839Z,1007.33
2019-06-08T07:18:32.825Z,1007.31
2019-06-08T07:19:32.813Z,1007.38
2019-06-08T07:20:32.813Z,1007.27
2019-06-08T07:21:41.332Z,1007.43
2019-06-08T07:22:33.769Z,1007.40
2019-06-08T07:23:32.758Z,1007.43
2019-06-08T07:24:32.750Z,1007.45
2019-06-08T07:25:32.753Z,1007.51
2019-06-08T07:26:32.814Z,1007.74
2019-06-08T07:27:32.712Z,1007.56
2019-06-08T07:28:32.700Z,1007.56
2019-06-08T07:29:32.722Z,1007.53
2019-06-08T07:30:32.688Z,1007.52
2019-06-08T07:31:32.679Z,1007.60
2019-06-08T07:32:32.681Z,1007.61
2019-06-08T07:33:32.752Z,1007.54
2019-06-08T07:34:32.636Z,1007.56
2019-06-08T07:35:32.628Z,1007.60
2019-06-08T07:36:32.611Z,1007.65
2019-06-08T07:37:32.780Z,1007.60
2019-06-08T07:38:32.624Z,1007.60
2019-06-08T07:39:32.594Z,1007.69
2019-06-08T07:40:32.615Z,1007.69
2019-06-08T07:41:32.564Z,1007.62
2019-06-08T07:42:32.542Z,1007.72
2019-06-08T07:43:32.563Z,1007.64
2019-06-08T07:44:32.542Z,1007.70
2019-06-08T07:45:32.529Z,1007.77
2019-06-08T07:46:32.565Z,1007.66
2019-06-08T07:47:32.499Z,1007.72
2019-06-08T07:48:32.476Z,1007.75
2019-06-08T07:49:32.480Z,1007.73
2019-06-08T07:50:32.453Z,1007.68
2019-06-08T07:51:32.444Z,1007.87
2019-06-08T07:52:32.480Z,1007.78
2019-06-08T07:53:32.422Z,1007.79
2019-06-08T07:54:32.410Z,1007.87
2019-06-08T07:55:32.412Z,1007.83
2019-06-08T07:56:32.391Z,1007.85
2019-06-08T07:57:32.409Z,1007.86
2019-06-08T07:58:32.375Z,1007.91
2019-06-08T07:59:32.381Z,1007.88
2019-06-08T08:00:32.362Z,1007.88
2019-06-08T08:01:36.473Z,1007.74
2019-06-08T08:02:32.323Z,1007.94
2019-06-08T08:03:32.308Z,1007.82
2019-06-08T08:04:32.299Z,1007.92
2019-06-08T08:05:32.293Z,1007.93
2019-06-08T08:06:32.333Z,1007.91
2019-06-08T08:07:32.275Z,1008.13
2019-06-08T08:08:32.257Z,1008.08
2019-06-08T08:09:32.256Z,1008.09
2019-06-08T08:10:32.236Z,1008.08
2019-06-08T08:11:32.232Z,1008.09
2019-06-08T08:12:32.212Z,1008.18
2019-06-08T08:13:32.249Z,1008.14
2019-06-08T08:14:32.190Z,1008.13
2019-06-08T08:15:32.198Z,1008.13
2019-06-08T08:16:32.168Z,1008.12
2019-06-08T08:17:34.402Z,1008.17
2019-06-08T08:18:32.165Z,1008.36
2019-06-08T08:19:32.137Z,1008.16
2019-06-08T08:20:32.194Z,1008.19
2019-06-08T08:21:32.109Z,1008.22
2019-06-08T08:22:32.110Z,1008.22
2019-06-08T08:23:32.091Z,1008.21
2019-06-08T08:24:32.084Z,1008.27
2019-06-08T08:25:32.071Z,1008.27
2019-06-08T08:26:34.505Z,1008.27
2019-06-08T08:27:32.070Z,1008.40
2019-06-08T08:28:32.047Z,1008.40
2019-06-08T08:29:32.027Z,1008.36
2019-06-08T08:30:32.006Z,1008.30
2019-06-08T08:31:32.002Z,1008.31
2019-06-08T08:32:31.993Z,1008.31
2019-06-08T08:33:32.039Z,1008.34
2019-06-08T08:34:31.968Z,1008.26
2019-06-08T08:35:31.951Z,1008.47
2019-06-08T08:36:33.415Z,1008.32
2019-06-08T08:37:31.935Z,1008.44
2019-06-08T08:38:31.949Z,1008.41
2019-06-08T08:39:31.918Z,1008.43
2019-06-08T08:40:31.979Z,1008.39
2019-06-08T08:41:31.883Z,1008.34
2019-06-08T08:42:31.914Z,1008.37
2019-06-08T08:43:31.895Z,1008.41
2019-06-08T08:44:31.887Z,1008.39
2019-06-08T08:45:31.839Z,1008.35
2019-06-08T08:46:31.832Z,1008.40
2019-06-08T08:47:31.898Z,1008.40
2019-06-08T08:48:31.895Z,1008.46
2019-06-08T08:49:31.798Z,1008.49
2019-06-08T08:50:31.795Z,1008.48
2019-06-08T08:51:31.785Z,1008.47
2019-06-08T08:52:37.201Z,1008.47
2019-06-08T08:53:32.822Z,1008.59
2019-06-08T08:54:31.755Z,1008.55
2019-06-08T08:55:31.726Z,1008.56
2019-06-08T08:56:31.753Z,1008.55
2019-06-08T08:57:31.712Z,1008.55
2019-06-08T08:58:31.692Z,1008.57
2019-06-08T08:59:31.725Z,1008.54
2019-06-08T09:00:31.690Z,1008.54
2019-06-08T09:01:31.672Z,1008.57
2019-06-08T09:02:31.650Z,1008.55
2019-06-08T09:03:33.599Z,1008.63
2019-06-08T09:04:31.678Z,1008.75
2019-06-08T09:05:31.617Z,1008.66
2019-06-08T09:06:31.611Z,1008.81
2019-06-08T09:07:31.613Z,1008.70
2019-06-08T09:08:31.593Z,1008.70
2019-06-08T09:09:31.615Z,1008.70
2019-06-08T09:10:31.563Z,1008.70
2019-06-08T09:11:31.551Z,1008.69
2019-06-08T09:12:31.560Z,1008.71
2019-06-08T09:13:31.566Z,1008.73
2019-06-08T09:14:31.525Z,1008.72
2019-06-08T09:15:31.700Z,1008.73
2019-06-08T09:16:31.514Z,1008.77
2019-06-08T09:17:31.493Z,1008.82
2019-06-08T09:18:31.487Z,1008.77
2019-06-08T09:19:31.538Z,1008.78
2019-06-08T09:20:31.452Z,1008.74
2019-06-08T09:21:31.448Z,1008.84
2019-06-08T09:22:31.470Z,1008.87
2019-06-08T09:23:31.426Z,1008.83
2019-06-08T09:24:31.402Z,1008.84
2019-06-08T09:25:31.436Z,1008.84
2019-06-08T09:26:31.539Z,1008.80
2019-06-08T09:27:31.369Z,1008.80
2019-06-08T09:28:31.359Z,1008.83
2019-06-08T09:29:31.371Z,1008.81
2019-06-08T09:30:31.349Z,1008.94
2019-06-08T09:31:31.336Z,1008.90
2019-06-08T09:32:31.314Z,1008.84
2019-06-08T09:33:31.342Z,1008.98
2019-06-08T09:34:31.302Z,1008.93
2019-06-08T09:35:31.279Z,1008.83
2019-06-08T09:36:31.268Z,1008.93
2019-06-08T09:37:31.256Z,1008.94
2019-06-08T09:38:31.263Z,1008.89
2019-06-08T09:39:31.285Z,1008.94
2019-06-08T09:40:32.553Z,1008.94
2019-06-08T09:41:31.539Z,1008.98
2019-06-08T09:42:31.205Z,1008.94
2019-06-08T09:43:31.195Z,1008.84
2019-06-08T09:44:31.186Z,1008.85
2019-06-08T09:45:31.214Z,1008.99
2019-06-08T09:46:31.160Z,1008.93
2019-06-08T09:47:31.168Z,1009.03
2019-06-08T09:48:31.133Z,1009.07
2019-06-08T09:49:31.124Z,1009.04
2019-06-08T09:50:31.112Z,1009.13
2019-06-08T09:51:31.231Z,1009.16
2019-06-08T09:52:31.129Z,1009.02
2019-06-08T09:53:37.111Z,1009.09
2019-06-08T09:54:32.096Z,1009.15
2019-06-08T09:55:31.058Z,1009.15
2019-06-08T09:56:31.045Z,1009.20
2019-06-08T09:57:31.093Z,1009.18
2019-06-08T09:58:31.041Z,1009.16
2019-06-08T09:59:31.053Z,1009.16
2019-06-08T10:00:31.019Z,1009.17
2019-06-08T10:01:31.015Z,1009.20
2019-06-08T10:02:30.986Z,1009.16
2019-06-08T10:03:30.981Z,1009.32
2019-06-08T10:04:31.556Z,1009.11
2019-06-08T10:05:30.945Z,1009.13
2019-06-08T10:06:30.938Z,1009.11
2019-06-08T10:07:31.360Z,1009.15
2019-06-08T10:08:30.912Z,1009.20
2019-06-08T10:09:30.922Z,1009.25
2019-06-08T10:10:30.953Z,1009.29
2019-06-08T10:11:30.883Z,1009.24
2019-06-08T10:12:30.865Z,1009.12
2019-06-08T10:13:30.861Z,1009.30
2019-06-08T10:14:30.857Z,1009.14
2019-06-08T10:15:30.873Z,1009.21
2019-06-08T10:16:31.101Z,1009.23
2019-06-08T10:17:30.844Z,1009.20
2019-06-08T10:18:30.817Z,1009.34
2019-06-08T10:19:30.792Z,1009.27
2019-06-08T10:20:30.993Z,1009.24
2019-06-08T10:21:30.792Z,1009.32
2019-06-08T10:22:30.796Z,1009.31
2019-06-08T10:23:34.359Z,1009.29
2019-06-08T10:24:30.733Z,1009.35
2019-06-08T10:25:30.767Z,1009.33
2019-06-08T10:26:30.727Z,1009.28
2019-06-08T10:27:30.700Z,1009.20
2019-06-08T10:28:30.693Z,1009.27
2019-06-08T10:29:30.706Z,1009.31
2019-06-08T10:30:30.677Z,1009.29
2019-06-08T10:31:38.995Z,1009.27
2019-06-08T10:32:31.644Z,1009.40
2019-06-08T10:33:30.629Z,1009.36
2019-06-08T10:34:30.620Z,1009.23
2019-06-08T10:35:30.606Z,1009.26
2019-06-08T10:36:30.619Z,1009.23
2019-06-08T10:37:30.593Z,1009.13
2019-06-08T10:38:30.577Z,1009.07
2019-06-08T10:39:30.562Z,1009.07
2019-06-08T10:40:30.570Z,1009.22
2019-06-08T10:41:30.541Z,1009.15
2019-06-08T10:42:30.580Z,1009.03
2019-06-08T10:43:30.522Z,1009.10
2019-06-08T10:44:30.506Z,1009.12
2019-06-08T10:45:30.511Z,1009.37
2019-06-08T10:46:30.485Z,1009.21
2019-06-08T10:47:30.490Z,1009.20
2019-06-08T10:48:30.490Z,1009.13
2019-06-08T10:49:30.465Z,1009.04
2019-06-08T10:50:30.440Z,1009.25
2019-06-08T10:51:30.454Z,1009.20
2019-06-08T10:52:30.423Z,1009.22
2019-06-08T10:53:45.191Z,1009.36
2019-06-08T10:54:31.437Z,1009.40
2019-06-08T10:55:30.401Z,1009.36
2019-06-08T10:56:31.151Z,1009.29
2019-06-08T10:57:30.369Z,1009.19
2019-06-08T10:58:30.388Z,1009.14
2019-06-08T10:59:30.347Z,1009.31
2019-06-08T11:00:30.360Z,1009.41
2019-06-08T11:01:30.320Z,1009.38
2019-06-08T11:02:30.325Z,1009.27
2019-06-08T11:03:30.696Z,1009.41
2019-06-08T11:04:30.284Z,1009.36
2019-06-08T11:05:30.281Z,1009.32
2019-06-08T11:06:30.262Z,1009.64
2019-06-08T11:07:30.296Z,1009.27
2019-06-08T11:08:30.254Z,1009.27
2019-06-08T11:09:30.234Z,1009.53
2019-06-08T11:10:30.224Z,1009.42
2019-06-08T11:11:30.239Z,1009.50
2019-06-08T11:12:30.198Z,1009.62
2019-06-08T11:13:30.227Z,1009.63
2019-06-08T11:14:30.172Z,1009.62
2019-06-08T11:15:30.188Z,1009.69
2019-06-08T11:16:30.152Z,1009.68
2019-06-08T11:17:30.138Z,1009.56
2019-06-08T11:18:30.131Z,1009.73
2019-06-08T11:19:30.143Z,1009.70
2019-06-08T11:20:30.607Z,1009.71
2019-06-08T11:21:30.099Z,1009.75
2019-06-08T11:22:30.085Z,1009.91
2019-06-08T11:23:30.077Z,1009.77
2019-06-08T11:24:30.097Z,1009.74
2019-06-08T11:25:30.094Z,1009.82
2019-06-08T11:26:30.047Z,1009.81
2019-06-08T11:27:30.041Z,1009.83
2019-06-08T11:28:30.020Z,1009.85
2019-06-08T11:29:30.721Z,1009.87
2019-06-08T11:30:30.719Z,1009.99
2019-06-08T11:31:32.244Z,1009.88
2019-06-08T11:32:29.983Z,1010.05
2019-06-08T11:33:30.495Z,1010.03
2019-06-08T11:34:29.958Z,1009.99
2019-06-08T11:35:29.952Z,1010.12
2019-06-08T11:36:29.932Z,1010.07
2019-06-08T11:37:30.015Z,1010.22
2019-06-08T11:38:29.913Z,1010.14
2019-06-08T11:39:29.921Z,1010.46
2019-06-08T11:40:29.895Z,1010.13
2019-06-08T11:41:29.877Z,1010.10
2019-06-08T11:42:29.873Z,1010.31
2019-06-08T11:43:29.906Z,1010.26
2019-06-08T11:44:29.842Z,1010.50
2019-06-08T11:45:29.828Z,1010.35
2019-06-08T11:46:29.829Z,1010.53
2019-06-08T11:47:30.982Z,1010.40
2019-06-08T11:48:29.856Z,1010.49
2019-06-08T11:49:29.802Z,1010.50
2019-06-08T11:50:29.776Z,1010.43
2019-06-08T11:51:29.929Z,1010.50
2019-06-08T11:52:29.755Z,1010.60
2019-06-08T11:53:29.759Z,1010.59
2019-06-08T11:54:37.024Z,1010.46
2019-06-08T11:55:30.732Z,1010.61
2019-06-08T11:56:29.710Z,1010.63
2019-06-08T11:57:29.704Z,1010.60
2019-06-08T11:58:30.753Z,1010.59
2019-06-08T11:59:29.697Z,1010.66
2019-06-08T12:00:31.036Z,1010.70
2019-06-08T12:01:29.657Z,1010.68
2019-06-08T12:02:29.658Z,1010.62
2019-06-08T12:03:30.535Z,1010.73
2019-06-08T12:04:29.623Z,1010.86
2019-06-08T12:05:29.611Z,1010.85